テヘラン の空港の天気 - METARとTAF

メヘラーバード国際空港(テヘラン) ( OIII / THR ) - イラン テヘラン
飛行場実況気象(Metar)
観測時間06/29 06:00 IRDT (06/29 01:30 UTC)
風向・風速北 2m/s
視程10km以上
天気現象
なし
気温26℃
湿度28%
気圧1012hPa
METAROIII 290130Z 36004KT CAVOK 26/06 Q1012 A2989 NOSIG
過去の天気等 Google飛行場航空写真 Wunderground天気予報

過去48時間のMETAR

飛行場予報(TAF)
発表時間: 6/29 03:30 IRDT (6/28 23:00 UTC)
予報対象時間: 29日4時 IRDT ~ 30日10時 IRDT
風向・風速南東 4m/s
視程10km以上
なし
29日19時 IRDT ~ 29日22時 IRDT に一時的に
風向・風速南東 7m/s
TAF OIII 282300Z 2900/3006 13004MPS CAVOK
TEMPO 2915/2918 13007MPS